createdAt,value
2022-12-20T00:01:35.028Z,6.93
2022-12-20T00:04:05.407Z,8.38
2022-12-20T00:06:34.613Z,7.00
2022-12-20T00:09:03.382Z,8.85
2022-12-20T00:11:30.108Z,8.30
2022-12-20T00:13:57.916Z,9.15
2022-12-20T00:16:27.168Z,7.50
2022-12-20T00:18:59.308Z,6.65
2022-12-20T00:21:26.334Z,4.72
2022-12-20T00:23:54.238Z,5.35
2022-12-20T00:26:24.194Z,8.60
2022-12-20T00:28:52.336Z,6.07
2022-12-20T00:31:20.250Z,6.88
2022-12-20T00:33:50.134Z,5.70
2022-12-20T00:38:47.647Z,5.18
2022-12-20T00:41:36.521Z,8.57
2022-12-20T00:44:04.162Z,8.18
2022-12-20T00:46:32.267Z,6.07
2022-12-20T00:48:59.106Z,6.65
2022-12-20T00:51:28.423Z,8.02
2022-12-20T00:53:55.499Z,6.63
2022-12-20T00:56:22.566Z,4.65
2022-12-20T00:58:49.550Z,7.07
2022-12-20T01:01:24.087Z,7.25
2022-12-20T01:03:52.524Z,6.00
2022-12-20T01:06:20.163Z,4.93
2022-12-20T01:08:46.854Z,5.38
2022-12-20T01:11:19.387Z,4.90
2022-12-20T01:13:50.074Z,5.80
2022-12-20T01:16:23.234Z,7.18
2022-12-20T01:18:51.557Z,6.13
2022-12-20T01:21:20.249Z,7.07
2022-12-20T01:23:47.423Z,6.23
2022-12-20T01:26:17.707Z,4.13
2022-12-20T01:28:46.707Z,5.30
2022-12-20T01:31:16.614Z,9.95
2022-12-20T01:33:44.643Z,6.80
2022-12-20T01:36:14.185Z,5.78
2022-12-20T01:38:41.363Z,4.72
2022-12-20T01:41:08.592Z,4.22
2022-12-20T01:43:58.803Z,4.60
2022-12-20T01:46:27.833Z,4.07
2022-12-20T01:49:10.755Z,6.00
2022-12-20T01:51:42.938Z,6.50
2022-12-20T01:54:19.199Z,4.22
2022-12-20T01:56:50.461Z,3.05
2022-12-20T01:59:18.243Z,4.90
2022-12-20T02:01:45.260Z,3.95
2022-12-20T02:04:12.152Z,4.45
2022-12-20T02:06:39.059Z,5.28
2022-12-20T02:09:08.397Z,5.82
2022-12-20T02:12:09.278Z,3.20
2022-12-20T02:14:42.225Z,5.97
2022-12-20T02:17:17.408Z,7.93
2022-12-20T02:20:06.830Z,4.63
2022-12-20T02:22:33.367Z,5.13
2022-12-20T02:25:18.786Z,6.07
2022-12-20T02:28:05.047Z,6.80
2022-12-20T02:30:39.206Z,5.47
2022-12-20T02:33:10.399Z,5.53
2022-12-20T02:35:39.401Z,5.07
2022-12-20T02:38:44.921Z,8.23
2022-12-20T02:41:15.294Z,4.35
2022-12-20T02:44:03.051Z,7.68
2022-12-20T02:46:32.709Z,3.78
2022-12-20T02:49:27.671Z,7.25
2022-12-20T02:51:56.900Z,4.68
2022-12-20T02:54:24.251Z,3.22
2022-12-20T02:57:00.350Z,8.93
2022-12-20T02:59:37.501Z,4.35
2022-12-20T03:02:05.957Z,5.18
2022-12-20T03:04:37.589Z,4.00
2022-12-20T03:07:06.116Z,3.30
2022-12-20T03:09:36.543Z,2.90
2022-12-20T03:12:04.272Z,7.68
2022-12-20T03:14:34.310Z,5.20
2022-12-20T03:17:03.968Z,4.00
2022-12-20T03:19:30.912Z,4.28
2022-12-20T03:21:58.865Z,4.65
2022-12-20T03:24:26.156Z,4.07
2022-12-20T03:26:58.106Z,4.78
2022-12-20T03:29:25.760Z,7.75
2022-12-20T03:31:52.568Z,8.13
2022-12-20T03:34:19.402Z,6.90
2022-12-20T03:36:45.948Z,6.05
2022-12-20T03:39:12.498Z,5.53
2022-12-20T03:41:41.547Z,4.97
2022-12-20T03:44:09.936Z,7.93
2022-12-20T03:46:36.704Z,5.50
2022-12-20T03:49:04.670Z,4.18
2022-12-20T03:51:33.068Z,3.33
2022-12-20T03:53:59.888Z,5.78
2022-12-20T03:56:46.360Z,6.95
2022-12-20T03:59:12.921Z,4.63
2022-12-20T04:01:40.312Z,7.10
2022-12-20T04:04:10.011Z,4.35
2022-12-20T04:06:36.584Z,4.97
2022-12-20T04:09:03.451Z,7.43
2022-12-20T04:11:36.556Z,5.82
2022-12-20T04:14:10.563Z,6.90
2022-12-20T04:16:37.706Z,9.15
2022-12-20T04:19:05.283Z,6.47
2022-12-20T04:21:37.660Z,4.22
2022-12-20T04:24:06.064Z,7.15
2022-12-20T04:26:45.748Z,6.80
2022-12-20T04:29:13.635Z,7.88
2022-12-20T04:31:42.207Z,8.68
2022-12-20T04:34:09.195Z,9.18
2022-12-20T04:36:36.145Z,8.13
2022-12-20T04:39:06.386Z,8.95
2022-12-20T04:41:43.121Z,6.38
2022-12-20T04:44:12.886Z,9.00
2022-12-20T04:46:39.640Z,7.80
2022-12-20T04:49:10.757Z,6.80
2022-12-20T04:51:40.281Z,7.32
2022-12-20T04:54:06.928Z,9.52
2022-12-20T04:56:45.603Z,6.30
2022-12-20T04:59:17.343Z,11.27
2022-12-20T05:04:20.854Z,8.90
2022-12-20T05:06:47.502Z,7.07
2022-12-20T05:09:14.443Z,8.13
2022-12-20T05:11:41.190Z,7.82
2022-12-20T05:14:08.834Z,7.53
2022-12-20T05:16:37.458Z,8.30
2022-12-20T05:19:10.049Z,8.32
2022-12-20T05:22:00.370Z,8.77
2022-12-20T05:24:45.743Z,7.43
2022-12-20T05:27:24.322Z,9.15
2022-12-20T05:30:16.862Z,6.72
2022-12-20T05:32:44.891Z,5.93
2022-12-20T05:35:11.793Z,7.95
2022-12-20T05:37:41.360Z,5.63
2022-12-20T05:40:16.117Z,10.80
2022-12-20T05:42:43.150Z,6.55
2022-12-20T05:45:11.583Z,8.32
2022-12-20T05:47:47.771Z,8.15
2022-12-20T05:50:23.260Z,6.53
2022-12-20T05:53:35.911Z,8.88
2022-12-20T05:56:14.344Z,7.85
2022-12-20T05:58:44.182Z,12.05
2022-12-20T06:01:11.054Z,8.00
2022-12-20T06:03:40.295Z,11.60
2022-12-20T06:06:14.974Z,10.27
2022-12-20T06:08:44.889Z,5.65
2022-12-20T06:11:24.337Z,9.07
2022-12-20T06:14:14.598Z,10.75
2022-12-20T06:16:45.681Z,8.85
2022-12-20T06:19:21.193Z,8.02
2022-12-20T06:21:50.317Z,9.68
2022-12-20T06:24:21.274Z,10.50
2022-12-20T06:26:48.391Z,11.45
2022-12-20T06:29:17.506Z,7.55
2022-12-20T06:31:50.528Z,9.75
2022-12-20T06:34:18.347Z,11.52
2022-12-20T06:36:45.584Z,11.38
2022-12-20T06:39:17.655Z,9.73
2022-12-20T06:42:04.553Z,10.20
2022-12-20T06:44:31.120Z,8.07
2022-12-20T06:46:57.682Z,10.88
2022-12-20T06:49:24.612Z,11.85
2022-12-20T06:51:51.463Z,9.45
2022-12-20T06:54:22.659Z,9.93
2022-12-20T06:56:50.429Z,11.68
2022-12-20T06:59:17.186Z,13.23
2022-12-20T07:01:44.846Z,10.88
2022-12-20T07:04:11.698Z,10.57
2022-12-20T07:06:38.216Z,9.05
2022-12-20T07:09:04.791Z,13.25
2022-12-20T07:11:31.550Z,9.93
2022-12-20T07:13:58.411Z,9.38
2022-12-20T07:16:25.642Z,10.57
2022-12-20T07:18:53.669Z,15.15
2022-12-20T07:21:21.304Z,11.82
2022-12-20T07:23:48.271Z,10.52
2022-12-20T07:26:15.656Z,10.30
2022-12-20T07:28:42.817Z,9.75
2022-12-20T07:31:09.378Z,9.68
2022-12-20T07:33:37.283Z,7.50
2022-12-20T07:36:06.772Z,8.48
2022-12-20T07:38:35.530Z,6.60
2022-12-20T07:41:08.225Z,7.03
2022-12-20T07:43:34.996Z,9.00
2022-12-20T07:46:02.471Z,8.45
2022-12-20T07:48:29.299Z,9.30
2022-12-20T07:51:02.515Z,6.38
2022-12-20T07:53:32.987Z,8.65
2022-12-20T07:56:01.657Z,9.90
2022-12-20T07:58:30.963Z,9.00
2022-12-20T08:00:58.075Z,5.57
2022-12-20T08:03:59.683Z,6.47
2022-12-20T08:06:26.538Z,7.82
2022-12-20T08:08:55.815Z,11.80
2022-12-20T08:11:23.990Z,6.50
2022-12-20T08:13:57.558Z,11.63
2022-12-20T08:16:31.240Z,10.25
2022-12-20T08:18:57.841Z,7.80
2022-12-20T08:21:24.449Z,11.93
2022-12-20T08:23:53.099Z,9.15
2022-12-20T08:26:19.695Z,7.60
2022-12-20T08:28:46.836Z,9.90
2022-12-20T08:31:13.482Z,9.82
2022-12-20T08:33:40.788Z,12.13
2022-12-20T08:36:13.022Z,8.80
2022-12-20T08:38:40.391Z,7.82
2022-12-20T08:41:25.227Z,8.38
2022-12-20T08:43:51.852Z,9.13
2022-12-20T08:46:18.455Z,7.30
2022-12-20T08:48:45.077Z,11.13
2022-12-20T08:51:12.026Z,8.77
2022-12-20T08:53:39.370Z,8.13
2022-12-20T08:56:12.638Z,7.97
2022-12-20T08:58:40.305Z,12.48
2022-12-20T09:01:09.673Z,9.90
2022-12-20T09:03:37.241Z,8.38
2022-12-20T09:06:10.303Z,9.00
2022-12-20T09:08:38.305Z,8.57
2022-12-20T09:11:14.248Z,9.27
2022-12-20T09:13:44.255Z,13.27
2022-12-20T09:16:14.015Z,7.10
2022-12-20T09:18:41.207Z,8.07
2022-12-20T09:21:08.349Z,7.05
2022-12-20T09:23:36.732Z,7.47
2022-12-20T09:26:06.581Z,8.77
2022-12-20T09:28:34.413Z,9.07
2022-12-20T09:31:03.120Z,6.82
2022-12-20T09:33:30.837Z,6.53
2022-12-20T09:35:59.027Z,6.65
2022-12-20T09:38:26.218Z,4.95
2022-12-20T09:41:48.660Z,7.10
2022-12-20T09:43:53.482Z,7.15
2022-12-20T09:46:20.392Z,6.05
2022-12-20T09:48:47.890Z,5.75
2022-12-20T09:51:43.380Z,7.97
2022-12-20T09:54:39.343Z,6.13
2022-12-20T09:57:15.045Z,5.35
2022-12-20T09:59:49.274Z,6.57
2022-12-20T10:05:41.149Z,5.28
2022-12-20T10:08:11.022Z,5.47
2022-12-20T10:11:12.597Z,5.13
2022-12-20T10:14:10.257Z,5.00
2022-12-20T10:16:46.864Z,4.85
2022-12-20T10:19:22.704Z,4.50
2022-12-20T10:22:37.703Z,3.75
2022-12-20T10:25:13.367Z,3.75
2022-12-20T10:27:53.132Z,4.88
2022-12-20T10:30:22.599Z,5.53
2022-12-20T10:32:53.787Z,8.10
2022-12-20T10:35:29.271Z,5.80
2022-12-20T10:38:13.822Z,5.63
2022-12-20T10:41:19.514Z,5.10
2022-12-20T10:43:45.414Z,23.92
2022-12-20T10:46:14.176Z,8.15
2022-12-20T10:48:43.141Z,5.20
2022-12-20T10:51:15.451Z,6.72
2022-12-20T10:53:59.448Z,5.55
2022-12-20T10:56:31.747Z,5.40
2022-12-20T10:58:59.667Z,5.30
2022-12-20T11:01:37.435Z,6.10
2022-12-20T11:04:07.390Z,4.85
2022-12-20T11:06:37.087Z,6.90
2022-12-20T11:09:19.710Z,6.38
2022-12-20T11:12:16.688Z,5.03
2022-12-20T11:14:45.523Z,6.68
2022-12-20T11:17:38.565Z,5.47
2022-12-20T11:20:16.903Z,4.25
2022-12-20T11:22:43.616Z,10.73
2022-12-20T11:25:31.728Z,10.00
2022-12-20T11:28:19.391Z,5.20
2022-12-20T11:31:04.718Z,10.32
2022-12-20T11:34:34.339Z,9.52
2022-12-20T11:37:03.939Z,6.57
2022-12-20T11:42:49.451Z,4.95
2022-12-20T11:45:27.343Z,6.65
2022-12-20T11:48:12.861Z,7.68
2022-12-20T11:50:44.787Z,8.30
2022-12-20T11:53:23.212Z,5.70
2022-12-20T11:55:56.757Z,5.15
2022-12-20T11:58:38.633Z,7.28
2022-12-20T12:01:31.008Z,3.05
2022-12-20T12:04:13.287Z,5.03
2022-12-20T12:07:01.227Z,5.78
2022-12-20T12:09:42.459Z,5.45
2022-12-20T12:12:19.324Z,5.75
2022-12-20T12:15:04.144Z,5.25
2022-12-20T12:17:49.746Z,6.53
2022-12-20T12:20:31.218Z,4.15
2022-12-20T12:23:19.705Z,7.90
2022-12-20T12:25:46.253Z,6.03
2022-12-20T12:28:38.801Z,4.95
2022-12-20T12:31:15.398Z,4.15
2022-12-20T12:34:01.896Z,8.18
2022-12-20T12:36:47.108Z,7.60
2022-12-20T12:39:29.092Z,5.78
2022-12-20T12:42:17.920Z,6.95
2022-12-20T12:45:02.478Z,5.65
2022-12-20T12:48:06.622Z,6.75
2022-12-20T12:50:38.952Z,6.25
2022-12-20T12:56:46.256Z,5.28
2022-12-20T12:59:51.792Z,6.82
2022-12-20T13:02:20.474Z,11.52
2022-12-20T13:05:50.322Z,5.50
2022-12-20T13:08:49.194Z,9.05
2022-12-20T13:11:36.720Z,7.18
2022-12-20T13:14:24.731Z,4.40
2022-12-20T13:19:39.985Z,3.50
2022-12-20T13:22:06.643Z,6.63
2022-12-20T13:24:48.386Z,8.27
2022-12-20T13:27:25.221Z,3.65
2022-12-20T13:29:55.272Z,6.43
2022-12-20T13:32:46.751Z,6.90
2022-12-20T13:35:25.680Z,4.63
2022-12-20T13:37:55.517Z,7.18
2022-12-20T13:40:57.569Z,5.15
2022-12-20T13:43:29.083Z,5.53
2022-12-20T13:45:57.945Z,5.28
2022-12-20T13:48:39.403Z,7.47
2022-12-20T13:51:10.197Z,5.88
2022-12-20T13:53:38.939Z,4.88
2022-12-20T13:56:51.100Z,7.30
2022-12-20T13:59:27.758Z,6.38
2022-12-20T14:01:58.161Z,5.63
2022-12-20T14:04:40.874Z,4.25
2022-12-20T14:07:14.576Z,4.57
2022-12-20T14:09:45.369Z,4.70
2022-12-20T14:12:19.625Z,7.25
2022-12-20T14:14:52.580Z,6.60
2022-12-20T14:17:32.145Z,4.75
2022-12-20T14:22:34.949Z,7.22
2022-12-20T14:25:05.442Z,6.77
2022-12-20T14:27:36.333Z,6.72
2022-12-20T14:30:05.708Z,8.57
2022-12-20T14:32:32.728Z,9.57
2022-12-20T14:34:59.585Z,7.93
2022-12-20T14:37:39.093Z,5.90
2022-12-20T14:40:12.434Z,5.38
2022-12-20T14:42:40.481Z,3.95
2022-12-20T14:45:19.087Z,3.20
2022-12-20T14:47:49.845Z,4.82
2022-12-20T14:50:35.194Z,4.50
2022-12-20T14:53:02.707Z,5.43
2022-12-20T14:55:44.710Z,3.03
2022-12-20T14:58:23.401Z,4.47
2022-12-20T15:01:23.116Z,5.97
2022-12-20T15:03:55.785Z,6.45
2022-12-20T15:06:46.056Z,4.63
2022-12-20T15:09:12.722Z,5.35
2022-12-20T15:11:42.024Z,5.38
2022-12-20T15:14:37.945Z,5.10
2022-12-20T15:17:10.689Z,5.38
2022-12-20T15:19:42.744Z,4.35
2022-12-20T15:22:15.776Z,6.63
2022-12-20T15:24:43.500Z,9.80
2022-12-20T15:27:15.057Z,5.25
2022-12-20T15:29:42.252Z,6.72
2022-12-20T15:32:28.154Z,8.25
2022-12-20T15:34:54.938Z,9.73
2022-12-20T15:37:21.562Z,6.30
2022-12-20T15:39:48.141Z,8.77
2022-12-20T15:42:17.463Z,9.15
2022-12-20T15:44:44.563Z,9.05
2022-12-20T15:47:13.098Z,7.75
2022-12-20T15:49:44.581Z,11.57
2022-12-20T15:52:23.479Z,9.35
2022-12-20T15:54:50.477Z,17.83
2022-12-20T15:57:17.150Z,10.50
2022-12-20T16:00:01.612Z,11.82
2022-12-20T16:02:38.473Z,15.80
2022-12-20T16:05:05.658Z,18.20
2022-12-20T16:07:32.233Z,13.48
2022-12-20T16:09:58.778Z,13.50
2022-12-20T16:12:33.073Z,8.13
2022-12-20T16:14:59.689Z,7.75
2022-12-20T16:17:26.400Z,7.72
2022-12-20T16:19:53.026Z,7.18
2022-12-20T16:22:22.235Z,8.20
2022-12-20T16:24:49.641Z,11.48
2022-12-20T16:27:16.331Z,10.02
2022-12-20T16:29:42.969Z,10.73
2022-12-20T16:32:18.256Z,9.20
2022-12-20T16:34:45.309Z,7.60
2022-12-20T16:37:12.053Z,8.32
2022-12-20T16:39:38.694Z,7.05
2022-12-20T16:42:17.298Z,8.73
2022-12-20T16:44:45.553Z,14.88
2022-12-20T16:47:13.976Z,14.50
2022-12-20T16:49:47.178Z,12.85
2022-12-20T16:52:18.757Z,12.05
2022-12-20T16:54:45.487Z,11.23
2022-12-20T16:57:12.109Z,13.95
2022-12-20T16:59:38.752Z,9.90
2022-12-20T17:02:20.815Z,15.35
2022-12-20T17:04:47.626Z,11.13
2022-12-20T17:07:14.272Z,11.57
2022-12-20T17:09:40.852Z,11.50
2022-12-20T17:12:33.884Z,9.88
2022-12-20T17:15:00.479Z,14.23
2022-12-20T17:17:27.099Z,10.90
2022-12-20T17:19:53.635Z,11.73
2022-12-20T17:22:23.366Z,12.93
2022-12-20T17:24:50.146Z,11.95
2022-12-20T17:27:16.727Z,15.50
2022-12-20T17:29:43.404Z,12.60
2022-12-20T17:32:28.115Z,13.80
2022-12-20T17:34:55.202Z,12.85
2022-12-20T17:37:21.955Z,12.50
2022-12-20T17:39:56.329Z,14.98
2022-12-20T17:42:28.792Z,17.38
2022-12-20T17:44:57.944Z,16.48
2022-12-20T17:47:27.330Z,13.57
2022-12-20T17:49:54.143Z,18.98
2022-12-20T17:52:21.705Z,14.63
2022-12-20T17:54:48.338Z,17.00
2022-12-20T17:57:15.864Z,13.35
2022-12-20T17:59:43.939Z,15.40
2022-12-20T18:02:28.931Z,11.93
2022-12-20T18:04:58.914Z,13.50
2022-12-20T18:07:26.701Z,11.30
2022-12-20T18:12:53.656Z,15.70
2022-12-20T18:15:20.423Z,12.77
2022-12-20T18:17:47.178Z,11.98
2022-12-20T18:20:14.487Z,15.07
2022-12-20T18:22:41.313Z,10.65
2022-12-20T18:25:08.629Z,12.70
2022-12-20T18:27:42.837Z,10.60
2022-12-20T18:30:12.231Z,12.55
2022-12-20T18:32:40.277Z,16.90
2022-12-20T18:35:07.914Z,14.68
2022-12-20T18:37:34.636Z,15.25
2022-12-20T18:40:04.322Z,16.58
2022-12-20T18:44:57.483Z,16.70
2022-12-20T18:47:24.277Z,19.50
2022-12-20T18:49:50.986Z,16.55
2022-12-20T18:52:17.620Z,14.07
2022-12-20T18:54:44.725Z,18.17
2022-12-20T18:57:11.518Z,17.00
2022-12-20T18:59:38.404Z,14.55
2022-12-20T19:02:05.637Z,13.90
2022-12-20T19:04:32.446Z,17.48
2022-12-20T19:06:59.017Z,14.27
2022-12-20T19:09:25.686Z,17.52
2022-12-20T19:11:57.100Z,17.15
2022-12-20T19:14:24.375Z,17.30
2022-12-20T19:16:51.860Z,15.05
2022-12-20T19:19:18.672Z,17.33
2022-12-20T19:21:45.265Z,12.73
2022-12-20T19:24:12.089Z,15.13
2022-12-20T19:27:06.355Z,15.80
2022-12-20T19:29:33.128Z,14.80
2022-12-20T19:31:59.730Z,22.42
2022-12-20T19:34:26.269Z,15.32
2022-12-20T19:36:53.794Z,19.80
2022-12-20T19:39:23.346Z,19.35
2022-12-20T19:42:21.785Z,16.52
2022-12-20T19:44:37.763Z,16.52
2022-12-20T19:47:04.404Z,16.67
2022-12-20T19:49:31.023Z,16.05
2022-12-20T19:51:57.687Z,15.45
2022-12-20T19:54:24.370Z,15.70
2022-12-20T19:56:51.063Z,17.23
2022-12-20T19:59:17.641Z,18.05
2022-12-20T20:01:44.886Z,18.02
2022-12-20T20:04:11.558Z,15.95
2022-12-20T20:06:38.133Z,17.92
2022-12-20T20:09:04.664Z,14.57
2022-12-20T20:11:31.358Z,14.75
2022-12-20T20:13:58.005Z,17.02
2022-12-20T20:16:24.899Z,18.75
2022-12-20T20:18:52.255Z,18.52
2022-12-20T20:21:22.458Z,17.92
2022-12-20T20:23:51.239Z,17.98
2022-12-20T20:26:23.949Z,17.10
2022-12-20T20:28:51.241Z,19.88
2022-12-20T20:31:19.589Z,20.90
2022-12-20T20:33:46.775Z,17.20
2022-12-20T20:36:38.323Z,18.63
2022-12-20T20:39:04.934Z,20.45
2022-12-20T20:41:32.711Z,17.42
2022-12-20T20:44:06.612Z,20.98
2022-12-20T20:46:33.229Z,18.95
2022-12-20T20:48:59.794Z,19.90
2022-12-20T20:51:26.889Z,15.35
2022-12-20T20:53:53.652Z,18.33
2022-12-20T20:56:21.380Z,17.95
2022-12-20T20:58:49.846Z,19.45
2022-12-20T21:01:16.779Z,15.80
2022-12-20T21:03:43.412Z,17.60
2022-12-20T21:06:41.065Z,18.10
2022-12-20T21:09:08.697Z,16.33
2022-12-20T21:11:36.898Z,16.25
2022-12-20T21:14:03.875Z,13.18
2022-12-20T21:16:30.608Z,15.57
2022-12-20T21:18:58.736Z,12.70
2022-12-20T21:21:26.444Z,14.95
2022-12-20T21:24:01.891Z,15.15
2022-12-20T21:26:28.464Z,16.83
2022-12-20T21:29:01.351Z,14.18
2022-12-20T21:31:28.621Z,12.88
2022-12-20T21:33:58.167Z,13.82
2022-12-20T21:36:26.923Z,14.23
2022-12-20T21:39:00.328Z,14.05
2022-12-20T21:41:28.421Z,17.83
2022-12-20T21:43:56.639Z,19.23
2022-12-20T21:46:23.573Z,21.92
2022-12-20T21:48:50.418Z,20.95
2022-12-20T21:51:20.388Z,18.45
2022-12-20T21:53:51.992Z,16.73
2022-12-20T21:56:22.246Z,16.90
2022-12-20T21:58:49.407Z,17.52
2022-12-20T22:01:21.210Z,19.30
2022-12-20T22:03:52.783Z,17.08
2022-12-20T22:06:20.368Z,18.23
2022-12-20T22:08:47.218Z,13.90
2022-12-20T22:11:15.898Z,17.90
2022-12-20T22:13:42.852Z,19.00
2022-12-20T22:16:10.861Z,14.38
2022-12-20T22:18:38.100Z,15.35
2022-12-20T22:21:06.325Z,13.55
2022-12-20T22:23:33.001Z,18.95
2022-12-20T22:26:04.036Z,13.80
2022-12-20T22:28:30.626Z,17.38
2022-12-20T22:30:57.619Z,18.52
2022-12-20T22:33:24.554Z,20.35
2022-12-20T22:35:51.244Z,14.40
2022-12-20T22:38:17.790Z,17.17
2022-12-20T22:40:44.422Z,15.32
2022-12-20T22:43:10.992Z,17.73
2022-12-20T22:45:38.034Z,14.63
2022-12-20T22:48:04.906Z,17.85
2022-12-20T22:50:31.503Z,18.98
2022-12-20T22:52:58.610Z,14.52
2022-12-20T22:55:31.331Z,18.35
2022-12-20T22:57:58.026Z,16.77
2022-12-20T23:00:25.091Z,17.90
2022-12-20T23:02:51.820Z,21.15
2022-12-20T23:05:18.661Z,20.27
2022-12-20T23:07:45.442Z,22.63
2022-12-20T23:10:32.209Z,22.50
2022-12-20T23:13:17.315Z,18.33
2022-12-20T23:15:47.215Z,24.23
2022-12-20T23:18:13.782Z,18.60
2022-12-20T23:20:58.713Z,19.02
2022-12-20T23:23:25.244Z,20.65
2022-12-20T23:25:51.828Z,24.00
2022-12-20T23:28:18.455Z,20.50
2022-12-20T23:30:45.070Z,21.88
2022-12-20T23:33:11.683Z,21.65
2022-12-20T23:35:41.177Z,20.45
2022-12-20T23:38:10.024Z,19.45
2022-12-20T23:40:40.552Z,19.58
2022-12-20T23:43:07.126Z,21.05
2022-12-20T23:45:33.926Z,20.83
2022-12-20T23:48:00.547Z,24.15
2022-12-20T23:50:27.327Z,25.95
2022-12-20T23:52:53.914Z,29.40
2022-12-20T23:55:56.373Z,24.17
2022-12-20T23:58:52.334Z,21.70
